Time;durP1;ratioP1;P1;durP2;ratioP2;P2;SDS_P1;SDS_P2;PMS_P1;PMS_P2;Temp;Humidity;BMP_temperature;BMP_pressure;BME280_temperature;BME280_humidity;BME280_pressure;Samples;Min_cycle;Max_cycle;Signal;HPM_P1;HPM_P2
2023/01/26 00:00:27;;;;;;;42.73;22.70;;;0.90;99.90;;;;;;5049791;28;20456;-71
2023/01/26 00:02:53;;;;;;;43.00;23.10;;;0.60;99.90;;;;;;5065001;28;21110;-69
2023/01/26 00:05:19;;;;;;;46.90;24.13;;;0.60;99.90;;;;;;5068573;28;20509;-69
2023/01/26 00:07:44;;;;;;;45.50;23.70;;;0.80;99.90;;;;;;5066999;28;20438;-68
2023/01/26 00:10:11;;;;;;;44.80;22.60;;;0.60;99.90;;;;;;5067776;28;20430;-68
2023/01/26 00:12:37;;;;;;;44.53;23.67;;;1.90;99.90;;;;;;5044803;28;20421;-68
2023/01/26 00:15:03;;;;;;;44.53;24.17;;;0.60;99.90;;;;;;5067743;28;20427;-69
2023/01/26 00:17:29;;;;;;;49.13;23.63;;;0.80;99.90;;;;;;5058967;28;20440;-68
2023/01/26 00:19:56;;;;;;;51.37;24.87;;;0.70;99.90;;;;;;5046838;28;20464;-68
2023/01/26 00:22:24;;;;;;;43.65;23.30;;;0.60;99.90;;;;;;5066835;28;20437;-68
2023/01/26 00:24:49;;;;;;;47.85;24.80;;;0.60;99.90;;;;;;5045735;28;20485;-68
2023/01/26 00:27:15;;;;;;;50.45;24.58;;;0.80;99.90;;;;;;5063768;28;20431;-68
2023/01/26 00:29:41;;;;;;;49.72;24.48;;;0.60;99.90;;;;;;5066875;28;20466;-68
2023/01/26 00:32:07;;;;;;;48.23;23.77;;;0.70;99.90;;;;;;5066370;28;20829;-70
2023/01/26 00:34:32;;;;;;;45.50;23.20;;;0.70;99.90;;;;;;5067390;28;20432;-69
2023/01/26 00:36:58;;;;;;;44.27;24.00;;;0.70;99.90;;;;;;5066798;28;20427;-69
2023/01/26 00:39:23;;;;;;;45.67;24.73;;;1.10;99.90;;;;;;5047951;28;20514;-68
2023/01/26 00:42:31;;;;;;;51.33;24.60;;;1.00;99.90;;;;;;5047315;28;20922;-69
2023/01/26 00:44:39;;;;;;;55.03;26.13;;;0.90;99.90;;;;;;5057598;28;20450;-69
2023/01/26 00:47:07;;;;;;;53.85;24.88;;;0.90;99.90;;;;;;5067757;28;20421;-68
2023/01/26 00:49:33;;;;;;;47.08;24.65;;;0.70;99.90;;;;;;5065397;28;20419;-68
2023/01/26 00:51:59;;;;;;;49.35;23.00;;;0.70;99.90;;;;;;5067315;28;20782;-69
2023/01/26 00:54:26;;;;;;;49.37;24.07;;;1.10;99.90;;;;;;5066367;28;20431;-68
2023/01/26 00:56:51;;;;;;;58.05;27.42;;;0.80;99.90;;;;;;5048026;28;21085;-68
2023/01/26 00:59:17;;;;;;;46.73;24.53;;;0.80;99.90;;;;;;5048151;28;20560;-68
2023/01/26 01:01:43;;;;;;;50.22;25.50;;;0.70;99.90;;;;;;5065339;28;20419;-68
2023/01/26 01:04:09;;;;;;;45.70;24.42;;;0.80;99.90;;;;;;5064696;28;20435;-69
2023/01/26 01:06:34;;;;;;;52.40;24.10;;;0.70;99.90;;;;;;5048318;28;20415;-70
2023/01/26 01:09:00;;;;;;;48.37;24.23;;;0.90;99.90;;;;;;5065937;28;21017;-68
2023/01/26 01:11:26;;;;;;;46.92;23.00;;;0.80;99.90;;;;;;5060482;28;20523;-68
2023/01/26 01:13:52;;;;;;;51.83;24.45;;;0.60;99.90;;;;;;5047248;28;20940;-68
2023/01/26 01:16:17;;;;;;;50.65;24.65;;;0.70;99.90;;;;;;5035541;28;20476;-68
2023/01/26 01:18:44;;;;;;;45.08;23.40;;;0.60;99.90;;;;;;5047106;28;20830;-68
2023/01/26 01:21:13;;;;;;;59.00;27.25;;;2.60;99.90;;;;;;5065086;28;20970;-67
2023/01/26 01:23:39;;;;;;;49.50;25.00;;;0.80;99.90;;;;;;5065881;28;20510;-68
2023/01/26 01:26:05;;;;;;;51.38;24.92;;;0.80;99.90;;;;;;5047660;28;20922;-68
2023/01/26 01:28:32;;;;;;;57.42;26.27;;;0.80;99.90;;;;;;5066662;28;20438;-68
2023/01/26 01:30:58;;;;;;;56.28;27.13;;;0.90;99.90;;;;;;5066086;28;20949;-68
2023/01/26 01:33:24;;;;;;;45.43;24.77;;;0.80;99.90;;;;;;5065673;28;20513;-68
2023/01/26 01:36:01;;;;;;;57.17;25.47;;;0.70;99.90;;;;;;5064603;28;20433;-69
2023/01/26 01:38:27;;;;;;;57.60;25.92;;;1.00;99.90;;;;;;5059169;28;20469;-68
2023/01/26 01:40:54;;;;;;;65.07;26.13;;;0.80;99.90;;;;;;5045610;28;20433;-68
2023/01/26 01:43:20;;;;;;;52.07;24.10;;;1.00;99.90;;;;;;5065344;28;20923;-68
2023/01/26 01:45:50;;;;;;;45.10;24.02;;;0.90;99.90;;;;;;5065927;28;20514;-69
2023/01/26 01:48:24;;;;;;;58.17;24.87;;;0.80;99.90;;;;;;5065652;28;20411;-69
2023/01/26 01:50:53;;;;;;;47.35;24.02;;;0.90;99.90;;;;;;5064442;28;20474;-69
2023/01/26 01:53:24;;;;;;;50.67;24.20;;;1.60;99.90;;;;;;5045859;28;20967;-69
2023/01/26 01:55:59;;;;;;;53.38;25.77;;;2.10;99.90;;;;;;5044158;28;20781;-69
2023/01/26 01:58:29;;;;;;;59.65;24.42;;;1.00;99.90;;;;;;5064080;28;20874;-68
2023/01/26 02:00:57;;;;;;;55.58;25.60;;;1.30;99.90;;;;;;5048035;28;20878;-67
2023/01/26 02:03:24;;;;;;;54.53;25.70;;;1.10;99.90;;;;;;5061117;28;20970;-68
2023/01/26 02:05:52;;;;;;;49.28;23.42;;;1.10;99.90;;;;;;5045162;28;20434;-67
2023/01/26 02:08:20;;;;;;;46.83;23.92;;;1.10;99.90;;;;;;5046759;28;20432;-68
2023/01/26 02:13:26;;;;;;;52.13;24.80;;;1.00;99.90;;;;;;4995598;26;21004;-75
2023/01/26 02:15:52;;;;;;;43.87;22.83;;;1.00;99.90;;;;;;5044074;28;21006;-75
2023/01/26 02:18:17;;;;;;;51.28;23.38;;;1.10;99.90;;;;;;5044203;28;20514;-75
2023/01/26 02:20:50;;;;;;;56.42;23.85;;;1.00;99.90;;;;;;5036603;28;21971;-75
2023/01/26 02:23:30;;;;;;;54.95;23.98;;;1.10;99.90;;;;;;5036981;28;21381;-74
2023/01/26 02:26:03;;;;;;;69.82;27.23;;;1.00;99.90;;;;;;5045165;28;20461;-77
2023/01/26 02:28:31;;;;;;;51.45;23.88;;;1.10;99.90;;;;;;5045536;28;20471;-76
2023/01/26 02:30:57;;;;;;;49.88;23.60;;;2.20;99.90;;;;;;5024750;28;20943;-77
2023/01/26 02:33:27;;;;;;;53.08;24.58;;;1.00;99.90;;;;;;5039939;28;20759;-74
2023/01/26 02:35:52;;;;;;;57.72;25.75;;;1.10;99.90;;;;;;5043258;28;20498;-74
2023/01/26 02:38:22;;;;;;;54.30;23.73;;;2.80;99.90;;;;;;5040826;28;21274;-76
2023/01/26 02:40:53;;;;;;;49.95;23.27;;;1.10;99.90;;;;;;5041252;28;20439;-74
2023/01/26 02:43:20;;;;;;;44.10;23.05;;;1.00;99.90;;;;;;5043409;28;20424;-76
2023/01/26 02:45:45;;;;;;;47.88;23.38;;;1.10;99.90;;;;;;5025486;28;20441;-74
2023/01/26 02:48:11;;;;;;;56.67;25.80;;;1.10;99.90;;;;;;5044251;28;20405;-74
2023/01/26 02:50:37;;;;;;;51.30;23.40;;;2.60;99.90;;;;;;5007435;28;20463;-75
2023/01/26 02:53:03;;;;;;;51.80;24.45;;;1.40;99.90;;;;;;5025945;28;20425;-74
2023/01/26 02:55:29;;;;;;;52.03;25.27;;;1.00;99.90;;;;;;5046412;28;20915;-75
2023/01/26 02:58:00;;;;;;;53.88;25.30;;;1.10;99.90;;;;;;5045596;28;20439;-75
2023/01/26 03:00:29;;;;;;;49.10;24.17;;;1.00;99.90;;;;;;5042995;28;20444;-74
2023/01/26 03:02:58;;;;;;;52.10;26.23;;;1.20;99.90;;;;;;5019959;28;20467;-74
2023/01/26 03:05:25;;;;;;;49.53;24.30;;;1.00;99.90;;;;;;5042061;28;20523;-76
2023/01/26 03:07:51;;;;;;;52.10;26.48;;;1.30;99.90;;;;;;5044325;28;20428;-77
2023/01/26 03:10:17;;;;;;;53.00;24.90;;;3.30;99.90;;;;;;5045731;28;20421;-75
2023/01/26 03:12:44;;;;;;;59.28;24.83;;;1.20;99.90;;;;;;5044174;28;20421;-76
2023/01/26 03:29:00;;;;;;;55.33;24.52;;;1.40;99.90;;;;;;5046155;28;20430;-74
2023/01/26 03:31:25;;;;;;;55.53;25.20;;;1.30;99.90;;;;;;5045665;28;20423;-74
2023/01/26 03:33:51;;;;;;;50.15;22.98;;;1.40;99.90;;;;;;5019075;28;20471;-74
2023/01/26 03:36:17;;;;;;;55.33;24.45;;;1.40;99.90;;;;;;5046135;28;20448;-75
2023/01/26 03:38:43;;;;;;;47.33;24.20;;;1.30;99.90;;;;;;5044776;28;20546;-75
2023/01/26 03:57:34;;;;;;;57.55;25.70;;;1.60;99.90;;;;;;5047285;28;20432;-75
2023/01/26 03:59:59;;;;;;;58.47;25.10;;;1.40;99.90;;;;;;5043311;28;20419;-76
2023/01/26 04:10:38;;;;;;;52.08;23.52;;;1.70;99.90;;;;;;5046058;28;20429;-74
2023/01/26 04:21:27;;;;;;;52.75;22.77;;;1.70;99.90;;;;;;5027058;28;20433;-76
2023/01/26 04:23:57;;;;;;;51.40;23.85;;;1.80;99.90;;;;;;5028260;28;20962;-75
2023/01/26 04:26:33;;;;;;;42.20;22.00;;;1.90;99.90;;;;;;5046816;28;20537;-77
2023/01/26 04:29:04;;;;;;;44.00;23.95;;;1.80;99.90;;;;;;5044040;28;20500;-76
2023/01/26 04:31:31;;;;;;;60.70;25.63;;;2.70;99.90;;;;;;5041618;28;20429;-75
2023/01/26 04:33:57;;;;;;;47.08;23.45;;;1.70;99.90;;;;;;5044412;28;20590;-74
2023/01/26 04:36:22;;;;;;;48.72;24.05;;;1.60;99.90;;;;;;5045850;28;20448;-75
2023/01/26 04:38:49;;;;;;;64.18;26.00;;;3.10;99.90;;;;;;5045451;28;20473;-75
2023/01/26 04:41:15;;;;;;;49.55;23.35;;;1.80;99.90;;;;;;5043067;28;20429;-76
2023/01/26 04:43:40;;;;;;;49.28;24.52;;;1.80;99.90;;;;;;5042794;28;20437;-76
2023/01/26 04:46:07;;;;;;;54.47;25.43;;;1.90;99.90;;;;;;5028326;28;20791;-76
2023/01/26 04:48:34;;;;;;;58.22;27.13;;;3.60;99.90;;;;;;5047111;28;20425;-76
2023/01/26 04:51:03;;;;;;;53.95;25.60;;;1.80;99.90;;;;;;5045879;28;20436;-77
2023/01/26 04:53:28;;;;;;;53.58;26.38;;;1.80;99.90;;;;;;5045910;28;20457;-76
2023/01/26 04:55:54;;;;;;;56.53;27.67;;;3.80;99.90;;;;;;5046166;28;20511;-75
2023/01/26 04:58:20;;;;;;;50.08;24.27;;;2.00;99.90;;;;;;5046011;28;20500;-76
2023/01/26 05:00:56;;;;;;;59.30;25.57;;;1.90;99.90;;;;;;5038352;28;20426;-76
2023/01/26 05:03:24;;;;;;;57.72;24.13;;;2.30;99.90;;;;;;5049384;28;20459;-75
2023/01/26 05:05:51;;;;;;;59.47;25.73;;;3.30;99.90;;;;;;5053581;28;20437;-76
2023/01/26 05:08:18;;;;;;;57.83;25.77;;;2.00;99.90;;;;;;5019317;28;20516;-76
2023/01/26 05:10:45;;;;;;;66.43;25.42;;;2.20;99.90;;;;;;5044595;28;20407;-76
2023/01/26 05:13:11;;;;;;;60.72;26.17;;;2.30;99.90;;;;;;5044893;28;20437;-76
2023/01/26 05:15:37;;;;;;;60.73;26.63;;;2.10;99.90;;;;;;5026694;28;20436;-76
2023/01/26 05:18:03;;;;;;;60.00;26.58;;;2.20;99.90;;;;;;5042924;28;20418;-74
2023/01/26 05:20:30;;;;;;;66.88;26.17;;;2.00;99.90;;;;;;5023948;28;20448;-76
2023/01/26 05:22:56;;;;;;;55.63;24.13;;;2.10;99.90;;;;;;5044056;28;22313;-77
2023/01/26 05:25:21;;;;;;;62.75;26.90;;;2.20;99.90;;;;;;5045871;28;20431;-76
2023/01/26 05:27:47;;;;;;;58.25;25.95;;;2.10;99.90;;;;;;5044542;28;21166;-76
2023/01/26 05:30:13;;;;;;;54.72;25.35;;;2.20;99.90;;;;;;5045364;28;20555;-75
2023/01/26 05:32:38;;;;;;;60.30;25.70;;;2.20;99.90;;;;;;5045029;28;20510;-75
2023/01/26 05:35:06;;;;;;;61.40;26.17;;;3.60;99.90;;;;;;5044242;28;20448;-76
2023/01/26 05:37:32;;;;;;;60.03;25.48;;;2.20;99.90;;;;;;5044467;28;21224;-76
2023/01/26 05:39:58;;;;;;;55.40;25.00;;;2.00;99.90;;;;;;5040343;28;20482;-76
2023/01/26 05:42:24;;;;;;;69.10;27.07;;;2.10;99.90;;;;;;5028757;28;20429;-76
2023/01/26 05:44:50;;;;;;;64.10;26.13;;;3.90;99.90;;;;;;5026971;28;20499;-76
2023/01/26 05:47:16;;;;;;;71.50;26.85;;;2.30;99.90;;;;;;5043694;28;20935;-75
2023/01/26 05:49:42;;;;;;;61.10;25.95;;;2.30;99.90;;;;;;5042892;28;20425;-76
2023/01/26 05:52:16;;;;;;;61.30;25.10;;;2.10;99.90;;;;;;5043569;28;20475;-76
2023/01/26 05:54:42;;;;;;;58.70;25.42;;;2.20;99.90;;;;;;5042496;28;20965;-77
2023/01/26 05:57:08;;;;;;;56.72;24.67;;;2.20;99.90;;;;;;5044386;28;20445;-76
2023/01/26 05:59:33;;;;;;;63.47;24.83;;;2.30;99.90;;;;;;5025353;28;20482;-78
2023/01/26 06:01:59;;;;;;;55.23;23.57;;;2.20;99.90;;;;;;5028018;28;20413;-76
2023/01/26 06:04:25;;;;;;;57.88;23.48;;;2.30;99.90;;;;;;5042817;28;20425;-77
2023/01/26 06:06:52;;;;;;;50.08;21.42;;;2.40;99.90;;;;;;5024344;28;20530;-76
2023/01/26 06:09:18;;;;;;;59.88;21.55;;;3.20;99.90;;;;;;5040718;28;20447;-78
2023/01/26 06:11:44;;;;;;;51.08;22.42;;;2.20;99.90;;;;;;5041304;28;20433;-76
2023/01/26 06:14:10;;;;;;;48.60;22.00;;;2.20;99.90;;;;;;5045291;28;20428;-77
2023/01/26 06:16:36;;;;;;;47.57;20.53;;;2.30;99.90;;;;;;5043291;28;20516;-77
2023/01/26 06:19:01;;;;;;;50.27;17.53;;;2.60;99.90;;;;;;5026563;28;20463;-78
2023/01/26 06:21:27;;;;;;;53.80;16.40;;;2.90;99.90;;;;;;5044786;28;20428;-76
2023/01/26 06:23:53;;;;;;;56.33;17.75;;;3.60;99.90;;;;;;5028509;28;20421;-77
2023/01/26 06:26:19;;;;;;;53.60;16.00;;;3.10;99.90;;;;;;5044364;28;20941;-76
2023/01/26 06:28:44;;;;;;;56.07;19.00;;;3.30;99.90;;;;;;5044594;28;20481;-77
2023/01/26 06:31:10;;;;;;;53.53;20.37;;;2.90;99.90;;;;;;5045763;28;20457;-77
2023/01/26 06:33:37;;;;;;;49.53;16.93;;;3.00;99.90;;;;;;5044912;28;20424;-76
2023/01/26 06:36:09;;;;;;;39.45;10.70;;;3.00;99.90;;;;;;5027004;28;20433;-77
2023/01/26 06:38:35;;;;;;;42.57;12.17;;;3.40;99.90;;;;;;5034928;28;20501;-78
2023/01/26 06:41:02;;;;;;;58.87;14.10;;;3.40;99.90;;;;;;5022298;28;20516;-75
2023/01/26 06:43:35;;;;;;;54.33;12.27;;;3.40;99.90;;;;;;5044169;28;20417;-77
2023/01/26 06:46:02;;;;;;;43.40;12.40;;;3.70;99.90;;;;;;5044043;28;20828;-77
2023/01/26 06:48:31;;;;;;;40.13;10.38;;;3.60;99.90;;;;;;5032204;28;20421;-76
2023/01/26 06:51:18;;;;;;;47.13;9.37;;;3.80;99.90;;;;;;5033114;28;20475;-77
2023/01/26 06:53:47;;;;;;;59.75;10.43;;;3.90;99.90;;;;;;5003358;28;20433;-77
2023/01/26 06:56:13;;;;;;;48.95;9.15;;;5.80;99.90;;;;;;5037462;28;20483;-77
2023/01/26 06:58:39;;;;;;;45.88;10.30;;;4.00;99.90;;;;;;5038026;28;20425;-77
2023/01/26 07:01:05;;;;;;;46.80;8.83;;;6.40;99.90;;;;;;5044020;28;20421;-77
2023/01/26 07:03:30;;;;;;;39.10;8.67;;;4.30;99.90;;;;;;5045435;28;20429;-77
2023/01/26 07:05:56;;;;;;;43.67;8.83;;;4.10;99.90;;;;;;5018725;28;21095;-78
2023/01/26 07:08:22;;;;;;;40.05;7.65;;;6.00;99.90;;;;;;5024554;28;20421;-76
2023/01/26 07:10:51;;;;;;;40.90;7.95;;;4.00;99.90;;;;;;5044734;28;20499;-77
2023/01/26 07:13:16;;;;;;;43.72;6.82;;;4.30;99.90;;;;;;5044409;28;20501;-75
2023/01/26 07:15:42;;;;;;;40.88;6.82;;;4.90;99.90;;;;;;5041670;28;20524;-76
2023/01/26 07:18:08;;;;;;;48.85;8.55;;;4.20;99.90;;;;;;5045507;28;20432;-77
2023/01/26 07:20:33;;;;;;;36.17;6.22;;;4.00;99.90;;;;;;5043817;28;20432;-79
2023/01/26 07:22:59;;;;;;;37.10;6.15;;;4.00;99.90;;;;;;5029255;28;20496;-76
2023/01/26 07:25:25;;;;;;;39.07;6.50;;;4.00;99.90;;;;;;5042755;28;20939;-77
2023/01/26 07:27:58;;;;;;;41.33;6.13;;;5.20;99.90;;;;;;5044804;28;20421;-75
2023/01/26 07:30:24;;;;;;;41.97;6.40;;;4.60;99.90;;;;;;5030052;28;21054;-75
2023/01/26 07:32:50;;;;;;;37.92;5.28;;;4.00;99.90;;;;;;5050494;28;20903;-77
2023/01/26 07:35:16;;;;;;;36.50;6.00;;;4.00;99.90;;;;;;5048307;28;20445;-77
2023/01/26 07:37:41;;;;;;;36.60;6.18;;;3.90;99.90;;;;;;5050051;28;20409;-76
2023/01/26 07:40:08;;;;;;;40.30;6.38;;;3.90;99.90;;;;;;5045832;28;20429;-75
2023/01/26 07:42:33;;;;;;;50.10;6.10;;;3.90;99.90;;;;;;5050000;28;20413;-78
2023/01/26 07:44:59;;;;;;;39.27;6.53;;;4.60;99.90;;;;;;5048869;28;20971;-75
2023/01/26 07:47:25;;;;;;;39.25;6.03;;;3.80;99.90;;;;;;5047902;28;20429;-77
2023/01/26 07:49:51;;;;;;;35.20;8.15;;;3.90;99.90;;;;;;5030678;28;20487;-77
2023/01/26 07:52:16;;;;;;;40.40;8.13;;;3.90;99.90;;;;;;5049709;28;20424;-75
2023/01/26 07:54:42;;;;;;;41.85;7.82;;;4.00;99.90;;;;;;5044713;28;20526;-77
2023/01/26 07:57:08;;;;;;;41.35;7.88;;;4.00;99.90;;;;;;5046962;28;20417;-78
2023/01/26 07:59:34;;;;;;;42.13;7.20;;;5.00;99.90;;;;;;5040402;28;20825;-79
2023/01/26 08:01:59;;;;;;;34.30;6.53;;;3.80;99.90;;;;;;5047833;28;20518;-79
2023/01/26 08:04:25;;;;;;;37.75;5.10;;;4.00;99.90;;;;;;5026412;28;20526;-77
2023/01/26 08:06:51;;;;;;;36.83;7.73;;;3.90;99.90;;;;;;5047403;28;21146;-76
2023/01/26 08:09:17;;;;;;;36.33;6.85;;;4.50;99.90;;;;;;5049917;28;20440;-78
2023/01/26 08:11:43;;;;;;;36.03;6.05;;;3.90;99.90;;;;;;5044242;28;22153;-78
2023/01/26 08:14:09;;;;;;;37.42;7.72;;;3.80;99.90;;;;;;5049917;28;20420;-77
2023/01/26 08:16:34;;;;;;;39.72;7.65;;;3.90;99.90;;;;;;5050464;28;20433;-77
2023/01/26 08:19:01;;;;;;;33.22;5.43;;;3.90;99.90;;;;;;5033585;28;21312;-76
2023/01/26 08:21:27;;;;;;;36.63;6.93;;;5.80;99.90;;;;;;5030991;28;20487;-78
2023/01/26 08:23:54;;;;;;;32.83;5.97;;;4.00;99.90;;;;;;5049173;28;20417;-79
2023/01/26 08:26:20;;;;;;;34.50;5.85;;;4.30;99.90;;;;;;5050162;28;20417;-79
2023/01/26 08:28:46;;;;;;;42.65;7.97;;;4.10;99.90;;;;;;5051001;28;20420;-79
2023/01/26 08:31:17;;;;;;;40.03;6.28;;;4.20;99.90;;;;;;5032985;28;20425;-77
2023/01/26 08:33:44;;;;;;;36.95;5.93;;;4.60;99.90;;;;;;5049815;28;20440;-79
2023/01/26 08:36:12;;;;;;;33.80;7.18;;;6.60;99.90;;;;;;5033225;28;20432;-78
2023/01/26 08:38:37;;;;;;;35.58;5.35;;;4.20;99.90;;;;;;5049856;28;20504;-79
2023/01/26 08:41:03;;;;;;;30.50;5.87;;;6.10;99.90;;;;;;5050195;28;20488;-78
2023/01/26 08:43:29;;;;;;;36.67;6.45;;;4.40;99.90;;;;;;5049608;28;20429;-78
2023/01/26 08:45:55;;;;;;;35.15;6.57;;;6.80;99.90;;;;;;5031853;28;20466;-77
2023/01/26 08:48:21;;;;;;;30.77;6.53;;;5.20;99.90;;;;;;5050630;28;20760;-79
2023/01/26 08:50:47;;;;;;;45.85;7.20;;;4.80;99.90;;;;;;5048966;28;20420;-77
2023/01/26 08:53:13;;;;;;;33.92;6.60;;;5.40;99.90;;;;;;5049986;28;21154;-79
2023/01/26 08:55:38;;;;;;;32.05;5.82;;;5.00;99.90;;;;;;5048520;28;20439;-79
2023/01/26 08:58:04;;;;;;;41.10;6.72;;;4.90;99.90;;;;;;5030284;28;20509;-78
2023/01/26 09:00:30;;;;;;;44.78;8.93;;;5.90;99.90;;;;;;5049970;28;20425;-80
2023/01/26 09:03:00;;;;;;;35.90;8.02;;;5.10;99.90;;;;;;5049243;28;21048;-79
2023/01/26 09:05:30;;;;;;;39.17;6.38;;;5.10;99.90;;;;;;5030717;28;20437;-77
2023/01/26 09:07:55;;;;;;;35.10;5.68;;;6.80;99.90;;;;;;5049704;28;20818;-78
2023/01/26 09:10:21;;;;;;;35.20;5.35;;;5.30;99.90;;;;;;5049382;28;20418;-79
2023/01/26 09:12:47;;;;;;;34.03;6.13;;;5.20;99.90;;;;;;5031202;28;20409;-80
2023/01/26 09:15:13;;;;;;;41.73;7.57;;;5.30;99.90;;;;;;5048580;28;20428;-79
2023/01/26 09:17:38;;;;;;;29.57;5.20;;;5.30;99.90;;;;;;5031254;28;20500;-78
2023/01/26 09:20:06;;;;;;;32.07;4.50;;;7.50;99.90;;;;;;5048511;28;20413;-80
2023/01/26 09:22:31;;;;;;;39.15;6.72;;;5.20;99.90;;;;;;5049004;28;20503;-78
2023/01/26 09:24:57;;;;;;;30.63;5.35;;;6.40;99.90;;;;;;5049045;28;20413;-80
2023/01/26 09:27:23;;;;;;;36.55;7.22;;;7.10;99.90;;;;;;5049493;28;21148;-77
2023/01/26 09:29:48;;;;;;;35.30;6.43;;;6.80;99.90;;;;;;5013452;28;20819;-82
2023/01/26 09:32:14;;;;;;;31.83;6.65;;;7.10;99.90;;;;;;5031545;28;20425;-79
2023/01/26 09:34:40;;;;;;;27.00;5.13;;;5.90;99.90;;;;;;5046975;28;20425;-78
2023/01/26 09:37:09;;;;;;;34.83;6.95;;;8.20;99.90;;;;;;5049791;28;20725;-80
2023/01/26 09:39:34;;;;;;;34.13;5.97;;;6.00;99.90;;;;;;5047911;28;20978;-78
2023/01/26 09:42:39;;;;;;;34.90;6.33;;;8.00;99.90;;;;;;5049031;28;20429;-79
2023/01/26 09:45:10;;;;;;;36.95;6.97;;;6.00;99.90;;;;;;5044935;28;20465;-78
2023/01/26 09:48:08;;;;;;;40.30;6.18;;;7.40;99.90;;;;;;5048418;28;20421;-78
2023/01/26 09:50:59;;;;;;;41.90;6.53;;;6.10;99.90;;;;;;5045430;28;20809;-77
2023/01/26 09:53:47;;;;;;;38.67;6.88;;;6.30;99.90;;;;;;5033497;28;20474;-79
2023/01/26 09:56:20;;;;;;;28.85;6.13;;;6.30;99.90;;;;;;5005365;28;20451;-79
2023/01/26 09:58:54;;;;;;;26.03;6.13;;;6.30;99.90;;;;;;5037105;28;20413;-80
2023/01/26 10:02:06;;;;;;;38.78;7.07;;;8.60;99.90;;;;;;5046815;28;20504;-79
2023/01/26 10:04:36;;;;;;;27.17;5.38;;;6.40;99.90;;;;;;4999005;28;20425;-81
2023/01/26 10:07:10;;;;;;;35.88;6.60;;;6.40;99.90;;;;;;5045144;28;20418;-81
2023/01/26 10:09:38;;;;;;;29.67;4.65;;;6.50;99.90;;;;;;5027758;28;20437;-81
2023/01/26 10:12:27;;;;;;;32.03;4.70;;;7.80;99.90;;;;;;5040534;28;20423;-82
2023/01/26 10:15:27;;;;;;;25.63;5.20;;;7.20;99.90;;;;;;4998801;28;20454;-82
2023/01/26 10:17:54;;;;;;;24.13;4.37;;;6.70;99.90;;;;;;5027429;28;20943;-81
2023/01/26 10:20:43;;;;;;;20.48;4.32;;;8.10;99.90;;;;;;5044712;28;20417;-82
2023/01/26 10:23:22;;;;;;;33.35;6.05;;;7.00;99.90;;;;;;5047758;28;20492;-83
2023/01/26 10:25:50;;;;;;;25.97;4.47;;;7.10;99.90;;;;;;5043137;28;20475;-81
2023/01/26 10:28:34;;;;;;;29.10;5.90;;;7.10;99.90;;;;;;5028504;28;20425;-83
2023/01/26 10:31:02;;;;;;;21.20;4.40;;;7.10;99.90;;;;;;5021184;28;20779;-82
2023/01/26 10:33:36;;;;;;;22.63;4.40;;;7.20;99.90;;;;;;5024829;28;20943;-82
2023/01/26 10:36:05;;;;;;;20.33;3.53;;;7.10;99.90;;;;;;5013338;28;20431;-82
2023/01/26 10:38:34;;;;;;;27.27;5.90;;;7.10;99.90;;;;;;5035770;28;20484;-82
2023/01/26 10:41:13;;;;;;;22.92;5.18;;;7.10;99.90;;;;;;5046257;28;20432;-82
2023/01/26 10:43:53;;;;;;;23.60;5.53;;;7.20;99.90;;;;;;5028708;28;20796;-83
2023/01/26 10:46:35;;;;;;;20.55;5.07;;;7.30;99.90;;;;;;5042035;28;20883;-82
2023/01/26 10:49:13;;;;;;;23.05;4.32;;;7.70;99.90;;;;;;5044647;28;20736;-77
2023/01/26 10:52:06;;;;;;;22.13;4.65;;;7.90;99.90;;;;;;5023780;28;20435;-76
2023/01/26 10:54:36;;;;;;;22.73;4.72;;;7.10;99.90;;;;;;5030923;28;20433;-77
2023/01/26 10:57:12;;;;;;;23.02;4.20;;;7.20;99.90;;;;;;5039678;28;20417;-76
2023/01/26 11:00:21;;;;;;;23.55;4.95;;;7.20;99.90;;;;;;5043468;28;20977;-79
2023/01/26 11:02:52;;;;;;;16.65;4.32;;;7.30;99.90;;;;;;5043969;28;20417;-79
2023/01/26 11:05:21;;;;;;;17.47;3.87;;;7.60;99.90;;;;;;5029220;28;20429;-76
2023/01/26 11:07:49;;;;;;;17.20;3.60;;;7.60;99.90;;;;;;5049337;28;20600;-75
2023/01/26 11:10:19;;;;;;;15.07;3.15;;;7.70;99.90;;;;;;5049868;28;20428;-80
2023/01/26 11:12:45;;;;;;;21.42;3.67;;;7.80;99.90;;;;;;5048869;28;20425;-77
2023/01/26 11:15:20;;;;;;;22.85;4.70;;;7.80;99.90;;;;;;5048452;28;20445;-77
2023/01/26 11:18:00;;;;;;;19.85;4.45;;;7.90;99.90;;;;;;5049623;28;20417;-77
2023/01/26 11:20:47;;;;;;;11.45;3.22;;;8.50;99.90;;;;;;5047981;28;20416;-76
2023/01/26 11:23:25;;;;;;;16.80;3.72;;;7.80;99.90;;;;;;5047832;28;20807;-75
2023/01/26 11:26:23;;;;;;;21.27;3.30;;;7.80;99.90;;;;;;5049176;28;20873;-78
2023/01/26 11:29:07;;;;;;;20.15;4.03;;;7.90;99.90;;;;;;5036155;28;20566;-76
2023/01/26 11:32:02;;;;;;;14.40;3.05;;;7.90;99.90;;;;;;5049458;28;20508;-76
2023/01/26 11:34:54;;;;;;;11.95;2.85;;;7.80;99.90;;;;;;5027376;28;20432;-78
2023/01/26 11:37:44;;;;;;;18.65;4.70;;;7.80;99.90;;;;;;5047243;28;20496;-77
2023/01/26 11:40:27;;;;;;;14.40;3.15;;;7.70;99.90;;;;;;5050233;28;20421;-76
2023/01/26 11:43:19;;;;;;;17.35;3.33;;;7.70;99.90;;;;;;5041631;28;20425;-75
2023/01/26 11:46:23;;;;;;;19.23;3.47;;;7.70;99.90;;;;;;5030167;28;20945;-78
2023/01/26 11:49:05;;;;;;;16.17;4.13;;;7.80;99.90;;;;;;5036361;28;20440;-76
2023/01/26 11:51:54;;;;;;;21.40;5.53;;;7.90;99.90;;;;;;5049717;28;20441;-76
2023/01/26 11:54:49;;;;;;;19.45;3.97;;;8.00;99.90;;;;;;5039916;28;20472;-77
2023/01/26 11:57:27;;;;;;;16.25;3.47;;;8.00;99.90;;;;;;5040881;28;20588;-76
2023/01/26 12:00:04;;;;;;;19.83;4.22;;;8.40;99.90;;;;;;5047407;28;20423;-76
2023/01/26 12:02:33;;;;;;;16.88;4.57;;;8.20;99.90;;;;;;5031270;28;20431;-77
2023/01/26 12:05:07;;;;;;;12.05;2.95;;;8.50;99.90;;;;;;5048073;28;20427;-77
2023/01/26 12:07:54;;;;;;;13.63;3.08;;;8.00;99.90;;;;;;5049487;28;20465;-75
2023/01/26 12:10:26;;;;;;;14.23;2.30;;;8.10;99.90;;;;;;5048758;28;20428;-77
2023/01/26 12:12:59;;;;;;;12.32;2.28;;;9.30;99.90;;;;;;5029555;28;20565;-77
2023/01/26 12:15:32;;;;;;;16.92;3.70;;;10.10;99.90;;;;;;5044125;28;21002;-78
2023/01/26 12:18:00;;;;;;;18.35;3.58;;;8.00;99.90;;;;;;5029780;28;21001;-77
2023/01/26 12:20:44;;;;;;;14.90;3.13;;;8.70;99.90;;;;;;5029366;28;20813;-78
2023/01/26 12:23:20;;;;;;;14.73;3.63;;;8.10;99.90;;;;;;5048187;28;21306;-77
2023/01/26 12:25:51;;;;;;;18.70;2.80;;;8.10;99.90;;;;;;5046199;28;20779;-78
2023/01/26 12:28:42;;;;;;;14.98;2.03;;;8.20;99.90;;;;;;5047521;28;20428;-78
2023/01/26 12:31:26;;;;;;;12.02;2.35;;;8.20;99.90;;;;;;5048736;28;20413;-77
2023/01/26 12:33:54;;;;;;;12.27;2.22;;;9.70;99.90;;;;;;5045806;28;20684;-78
2023/01/26 12:36:53;;;;;;;12.13;1.98;;;8.70;99.90;;;;;;5047552;28;20432;-82
2023/01/26 12:39:38;;;;;;;15.75;2.50;;;8.10;99.90;;;;;;5048560;28;20421;-78
2023/01/26 12:42:48;;;;;;;12.05;1.42;;;7.90;99.90;;;;;;5046762;28;20465;-78
2023/01/26 12:45:27;;;;;;;15.90;3.45;;;7.90;99.90;;;;;;4992204;28;20437;-78
2023/01/26 12:48:17;;;;;;;10.50;2.57;;;9.70;99.90;;;;;;5048357;28;20431;-76
2023/01/26 12:50:58;;;;;;;10.20;2.53;;;8.00;99.90;;;;;;5046506;28;20429;-78
2023/01/26 12:53:32;;;;;;;14.60;3.00;;;8.10;99.90;;;;;;5045632;28;20429;-76
2023/01/26 12:56:32;;;;;;;13.80;2.63;;;8.00;99.90;;;;;;5046817;28;20486;-78
2023/01/26 12:59:04;;;;;;;17.50;3.28;;;8.00;99.90;;;;;;5028753;28;20411;-77
2023/01/26 13:01:38;;;;;;;18.73;3.47;;;8.00;99.90;;;;;;5043051;28;20822;-77
2023/01/26 13:04:15;;;;;;;13.82;2.13;;;9.10;99.90;;;;;;5046075;28;20424;-77
2023/01/26 13:06:41;;;;;;;14.55;2.22;;;8.00;99.90;;;;;;5029166;28;20440;-76
2023/01/26 13:09:23;;;;;;;18.17;2.95;;;8.20;99.90;;;;;;5048242;28;20912;-77
2023/01/26 13:11:51;;;;;;;13.80;2.90;;;8.00;99.90;;;;;;5045900;28;20530;-76
2023/01/26 13:14:33;;;;;;;13.05;3.35;;;8.00;99.90;;;;;;5047626;28;20807;-76
2023/01/26 13:17:36;;;;;;;8.90;2.03;;;8.10;99.90;;;;;;5047468;28;20432;-77
2023/01/26 13:20:22;;;;;;;13.75;3.28;;;8.00;99.90;;;;;;5046292;28;20509;-77
2023/01/26 13:22:47;;;;;;;12.77;2.63;;;8.00;99.90;;;;;;5046693;28;20431;-77
2023/01/26 13:25:19;;;;;;;12.75;2.75;;;8.00;99.90;;;;;;5045428;28;20429;-77
2023/01/26 13:27:56;;;;;;;11.52;1.80;;;8.00;99.90;;;;;;5048115;28;20409;-76
2023/01/26 13:30:22;;;;;;;11.53;1.33;;;8.00;99.90;;;;;;5046816;28;20413;-76
2023/01/26 13:32:48;;;;;;;7.22;2.25;;;7.90;99.90;;;;;;5025480;28;20447;-78
2023/01/26 13:35:17;;;;;;;14.80;2.77;;;8.20;99.90;;;;;;5047609;28;20444;-77
2023/01/26 13:37:55;;;;;;;10.95;1.60;;;7.80;99.90;;;;;;5046082;28;20966;-77
2023/01/26 13:40:30;;;;;;;9.45;2.30;;;7.90;99.90;;;;;;5046649;28;20453;-76
2023/01/26 13:43:20;;;;;;;9.50;1.60;;;7.80;99.90;;;;;;5049049;28;20413;-76
2023/01/26 13:45:58;;;;;;;11.32;2.55;;;7.80;99.90;;;;;;5048463;28;20928;-77
2023/01/26 13:48:32;;;;;;;9.73;2.08;;;7.80;99.90;;;;;;5049664;28;20496;-77
2023/01/26 13:51:02;;;;;;;8.88;1.95;;;7.80;99.90;;;;;;5048103;28;20428;-78